Millsboro, Delaware
Current Conditions -  °F | °C
As of 11:54 PM on Monday 20 Oct 2014 (Local Time) from KGED Reporting Station
Clear Clear  
Wind Chill: 53°   Ceiling: Unl
Heat Index: 53°   Visibility: 10mi
Dew Point: 45°   Wind: 0mph
Humidity: 74%   Direction: NA
Pressure: 29.97"   Gusts: NA
Location:  38.59°N, 75.29°W
Report Text: KGED 210354Z AUTO 00000KT 10SM CLR 12/07 A2997 RMK AO2 SLP149 T01170072
Loading
Personal Weather Stations






























Interactive Weather Map
Tropical Storm Tracking
New forecast layout! Learn more

10-Day Weather Forecast

Advertisements
Track Severe Weather on mobile